»·PEaware :: CAX948 KWHP-KTOA

CAX948 :: KWHP-KTOA

FLIGHT INFORMATION

Flight Status: Arrived
Operator:
California Airlines (website)
More flights by this operator :: More flights under this callsign
Pilot: Tony D. (5369)
Aircraft: CESSNA 172 SKYHAWK
(C172)
More flights by this aircraft type
Origin: KWHP Whiteman
United States
Destination: KTOA Zamperini
United States
More flights between these airports :: More routes between these airports
Route: V186 ADAMM V394 SLI
File this flight plan on PilotEdge
Remarks: BURN19
Altitude:
(Current/Filed)
5,000ft
Speed:
(Current/Filed)
120kts
Departed: 12-May-18 03:49 AM
Arrived: 12-May-18 04:46 AM
Distance/Time
Traveled:
27nm/0:57
Distance/Time
To Go:
Arrived

Flight Plot

Page will automatically refresh every two minutes.


Map Options




Map Legend


Flown Route
Filed Route
Departure Airport
Arrival Airport
Navaid (VOR, NDB)
Fix

Horizontal Profiles

Position Reports

Time Latitude Longitude Heading Altitude Ground
Speed
12-May-18 03:48 34.256420 -118.410536 318 1015ft 48kts
12-May-18 03:49 34.271094 -118.431407 271 1593ft 96kts
12-May-18 03:50 34.273312 -118.465071 271 2107ft 103kts
12-May-18 03:51 34.275325 -118.493509 271 2507ft 92kts
12-May-18 03:52 34.282604 -118.518906 337 2965ft 87kts
12-May-18 03:53 34.305121 -118.528263 339 3458ft 84kts
12-May-18 03:54 34.327195 -118.537612 338 3964ft 90kts
12-May-18 03:55 34.350924 -118.547776 337 4456ft 88kts
12-May-18 03:56 34.352236 -118.563921 171 4938ft 67kts
12-May-18 03:57 34.329340 -118.551088 158 4974ft 100kts
12-May-18 03:58 34.303918 -118.536789 158 4974ft 101kts
12-May-18 03:59 34.278645 -118.522559 158 5003ft 100kts
12-May-18 04:00 34.256157 -118.509901 158 5004ft 101kts
12-May-18 04:01 34.230770 -118.495613 158 5006ft 101kts
12-May-18 04:02 34.216762 -118.468360 115 5015ft 106kts
12-May-18 04:03 34.207487 -118.437723 115 5018ft 106kts
12-May-18 04:04 34.197367 -118.404298 115 5020ft 106kts
12-May-18 04:05 34.187314 -118.371105 116 5022ft 106kts
12-May-18 04:06 34.177212 -118.337771 116 5025ft 106kts
12-May-18 04:07 34.167112 -118.304480 116 5026ft 106kts
12-May-18 04:08 34.156914 -118.270919 115 4998ft 107kts
12-May-18 04:09 34.146698 -118.237302 115 4997ft 106kts
12-May-18 04:10 34.136509 -118.203814 115 4996ft 106kts
12-May-18 04:11 34.126260 -118.170156 115 4995ft 107kts
12-May-18 04:12 34.116031 -118.136546 115 4993ft 107kts
12-May-18 04:13 34.105809 -118.103005 115 4992ft 107kts
12-May-18 04:14 34.095520 -118.069258 114 4990ft 108kts
12-May-18 04:15 34.085042 -118.035018 115 4990ft 109kts
12-May-18 04:16 34.074373 -118.000134 115 4989ft 111kts
12-May-18 04:17 34.063534 -117.964740 115 4990ft 113kts
12-May-18 04:18 34.052601 -117.929071 114 4990ft 114kts
12-May-18 04:19 34.041472 -117.892792 114 4990ft 116kts
12-May-18 04:20 34.030787 -117.855998 112 4990ft 117kts
12-May-18 04:21 34.020190 -117.818952 133 4983ft 114kts
12-May-18 04:22 33.995561 -117.823588 207 4989ft 100kts
12-May-18 04:23 33.970189 -117.838074 204 4989ft 100kts
12-May-18 04:24 33.944609 -117.851687 202 4989ft 101kts
12-May-18 04:25 33.918775 -117.864890 201 4989ft 101kts
12-May-18 04:26 33.892727 -117.877390 201 4992ft 101kts
12-May-18 04:27 33.866536 -117.890210 201 4994ft 102kts
12-May-18 04:28 33.840168 -117.902607 199 4996ft 102kts
12-May-18 04:29 33.816891 -117.919514 251 4834ft 111kts
12-May-18 04:30 33.808901 -117.954278 250 4328ft 104kts
12-May-18 04:31 33.800925 -117.987447 249 3830ft 103kts
12-May-18 04:32 33.792856 -118.020225 249 3335ft 102kts
12-May-18 04:33 33.784313 -118.051744 226 2989ft 88kts
12-May-18 04:34 33.764934 -118.070518 216 2996ft 89kts
12-May-18 04:35 33.745367 -118.089244 215 2818ft 94kts
12-May-18 04:36 33.724051 -118.109073 215 2527ft 98kts
12-May-18 04:37 33.705112 -118.128855 243 2495ft 87kts
12-May-18 04:38 33.697647 -118.157585 272 2499ft 100kts
12-May-18 04:39 33.703460 -118.188359 306 2490ft 89kts
12-May-18 04:40 33.718358 -118.210424 305 2495ft 84kts
12-May-18 04:41 33.734660 -118.235248 305 2403ft 99kts
12-May-18 04:42 33.751516 -118.260537 306 1855ft 96kts
12-May-18 04:43 33.767732 -118.284894 306 1279ft 81kts
12-May-18 04:44 33.781594 -118.305774 306 802ft 77kts
12-May-18 04:45 33.793882 -118.324295 305 375ft 72kts
12-May-18 04:46 33.804635 -118.340704 304 97ft 36kts
12-May-18 04:47 33.805745 -118.345176 217 97ft 0kts

Navigation Log

Ident Type
Flight plan parsing failed, navigation log unavailable